Time;durP1;ratioP1;P1;durP2;ratioP2;P2;SDS_P1;SDS_P2;PMS_P1;PMS_P2;Temp;Humidity;BMP_temperature;BMP_pressure;BME280_temperature;BME280_humidity;BME280_pressure;Samples;Min_cycle;Max_cycle;Signal;HPM_P1;HPM_P2
2021/11/23 00:01:38;;;;;;;13.63;6.23;;;-0.70;99.90;;;;;;5051787;28;20048;-68
2021/11/23 00:04:06;;;;;;;15.27;6.57;;;-0.70;99.90;;;;;;5051069;28;20079;-68
2021/11/23 00:06:35;;;;;;;15.97;7.70;;;-0.90;99.90;;;;;;5051071;28;20088;-67
2021/11/23 00:09:02;;;;;;;16.63;7.57;;;-1.00;99.90;;;;;;5051943;28;20140;-67
2021/11/23 00:11:29;;;;;;;14.33;7.07;;;-1.00;99.90;;;;;;5051502;28;20398;-67
2021/11/23 00:13:57;;;;;;;15.20;7.87;;;-1.10;99.90;;;;;;5051783;28;20275;-67
2021/11/23 00:16:24;;;;;;;18.27;7.07;;;-1.10;99.90;;;;;;5050902;28;20109;-69
2021/11/23 00:18:51;;;;;;;14.90;7.03;;;-1.30;99.90;;;;;;5051829;28;20053;-67
2021/11/23 00:21:19;;;;;;;14.63;7.23;;;-1.20;99.90;;;;;;5051490;28;20103;-68
2021/11/23 00:23:46;;;;;;;15.33;6.10;;;-1.30;99.90;;;;;;5051541;28;20099;-68
2021/11/23 00:26:13;;;;;;;14.67;7.40;;;-1.30;99.90;;;;;;5050388;28;20076;-67
2021/11/23 00:28:40;;;;;;;16.33;8.87;;;-1.20;99.90;;;;;;5051385;28;20202;-67
2021/11/23 00:31:07;;;;;;;13.30;6.37;;;-1.20;99.90;;;;;;5051462;28;20053;-68
2021/11/23 00:33:40;;;;;;;13.90;7.30;;;-1.10;99.90;;;;;;5051431;28;20175;-67
2021/11/23 00:36:07;;;;;;;12.77;6.03;;;-1.20;99.90;;;;;;5050586;28;20057;-68
2021/11/23 00:38:41;;;;;;;16.73;7.07;;;-1.30;99.90;;;;;;5051249;28;20182;-68
2021/11/23 00:41:09;;;;;;;20.13;7.73;;;-1.20;99.90;;;;;;5051554;28;20091;-67
2021/11/23 00:43:36;;;;;;;16.27;7.30;;;-1.30;99.90;;;;;;5051312;28;20060;-67
2021/11/23 00:46:03;;;;;;;13.60;7.03;;;-1.30;99.90;;;;;;5050876;28;20056;-67
2021/11/23 00:48:30;;;;;;;16.33;7.03;;;-1.20;99.90;;;;;;5051117;28;20464;-68
2021/11/23 00:50:58;;;;;;;13.57;6.33;;;-1.10;99.90;;;;;;5051125;28;20527;-67
2021/11/23 00:53:25;;;;;;;13.77;6.90;;;-1.10;99.90;;;;;;5050922;28;20052;-68
2021/11/23 00:55:53;;;;;;;16.87;7.33;;;-1.10;99.90;;;;;;5050437;28;20416;-67
2021/11/23 00:58:20;;;;;;;14.47;7.17;;;-1.20;99.90;;;;;;5050786;28;20465;-67
2021/11/23 01:00:47;;;;;;;16.93;7.20;;;-1.20;99.90;;;;;;5051046;28;20525;-67
2021/11/23 01:03:15;;;;;;;12.63;6.50;;;-1.10;99.90;;;;;;5050412;28;20056;-68
2021/11/23 01:05:42;;;;;;;11.87;6.23;;;-1.10;99.90;;;;;;5050031;28;20056;-68
2021/11/23 01:08:09;;;;;;;13.53;6.97;;;-1.10;99.90;;;;;;5050909;28;20515;-67
2021/11/23 01:10:36;;;;;;;12.87;6.87;;;-1.10;99.90;;;;;;5050784;28;20065;-67
2021/11/23 01:13:05;;;;;;;12.73;6.60;;;-1.20;99.90;;;;;;5050350;28;20098;-68
2021/11/23 01:15:33;;;;;;;13.40;6.13;;;-1.20;99.90;;;;;;5049822;28;20045;-67
2021/11/23 01:18:00;;;;;;;11.43;5.93;;;-1.20;99.90;;;;;;5050134;28;20480;-67
2021/11/23 01:20:27;;;;;;;13.63;6.87;;;-1.20;99.90;;;;;;5050147;28;20193;-67
2021/11/23 01:22:54;;;;;;;20.47;7.60;;;-1.30;99.90;;;;;;5050072;28;20363;-67
2021/11/23 01:25:21;;;;;;;13.63;6.63;;;-1.30;99.90;;;;;;5049521;28;20485;-67
2021/11/23 01:27:48;;;;;;;15.17;6.43;;;-1.20;99.90;;;;;;5050036;28;20106;-68
2021/11/23 01:30:17;;;;;;;12.93;6.97;;;-1.20;99.90;;;;;;5050452;28;20049;-67
2021/11/23 01:32:44;;;;;;;13.20;6.10;;;-1.30;99.90;;;;;;5050097;28;20048;-68
2021/11/23 01:35:13;;;;;;;13.23;6.20;;;-1.30;99.90;;;;;;5048992;28;20053;-68
2021/11/23 01:37:41;;;;;;;15.00;6.90;;;-1.40;99.90;;;;;;5050201;28;20083;-67
2021/11/23 01:40:10;;;;;;;12.67;6.37;;;-1.50;99.90;;;;;;5050240;28;20052;-67
2021/11/23 01:42:38;;;;;;;11.67;5.87;;;-1.60;99.90;;;;;;5049545;28;20111;-67
2021/11/23 01:45:06;;;;;;;11.60;5.83;;;-1.60;99.90;;;;;;5049248;28;20055;-68
2021/11/23 01:47:34;;;;;;;12.83;6.13;;;-1.60;99.90;;;;;;5049538;28;20048;-67
2021/11/23 01:50:01;;;;;;;14.07;6.33;;;-1.70;99.90;;;;;;5049834;28;20493;-67
2021/11/23 01:52:29;;;;;;;13.23;6.60;;;-1.70;99.90;;;;;;5049877;28;20103;-68
2021/11/23 01:54:56;;;;;;;13.33;7.10;;;-1.70;99.90;;;;;;5049269;28;20443;-67
2021/11/23 01:57:23;;;;;;;15.47;6.83;;;-1.70;99.90;;;;;;5049591;28;20053;-67
2021/11/23 01:59:50;;;;;;;13.40;6.50;;;-1.70;99.90;;;;;;5049562;28;20465;-67
2021/11/23 02:02:17;;;;;;;12.97;6.53;;;-1.60;99.90;;;;;;5049258;28;20115;-67
2021/11/23 02:04:46;;;;;;;15.03;6.77;;;-1.50;99.90;;;;;;5048845;28;20107;-67
2021/11/23 02:07:13;;;;;;;13.20;6.07;;;-1.40;99.90;;;;;;5049446;28;20044;-67
2021/11/23 02:09:40;;;;;;;13.97;6.63;;;-1.40;99.90;;;;;;5050241;28;20489;-67
2021/11/23 02:12:08;;;;;;;14.57;6.67;;;-1.60;99.90;;;;;;5050120;28;20261;-68
2021/11/23 02:14:36;;;;;;;15.33;6.73;;;-1.60;99.90;;;;;;5049915;28;20049;-67
2021/11/23 02:17:03;;;;;;;14.83;6.90;;;-1.70;99.90;;;;;;5049072;28;20057;-67
2021/11/23 02:19:30;;;;;;;14.17;6.90;;;-1.70;99.90;;;;;;5049569;28;20061;-68
2021/11/23 02:21:59;;;;;;;13.57;6.50;;;-1.80;99.90;;;;;;5049949;28;20048;-67
2021/11/23 02:24:26;;;;;;;15.50;7.20;;;-1.80;99.90;;;;;;5049483;28;20110;-68
2021/11/23 02:26:53;;;;;;;13.73;6.97;;;-2.00;99.90;;;;;;5050537;28;20547;-67
2021/11/23 02:29:20;;;;;;;14.33;6.90;;;-1.90;99.90;;;;;;5054153;28;20049;-68
2021/11/23 02:31:47;;;;;;;13.53;6.23;;;-1.80;99.90;;;;;;5054040;28;20528;-68
2021/11/23 02:34:14;;;;;;;13.70;6.87;;;-1.80;99.90;;;;;;5053465;28;20053;-67
2021/11/23 02:36:41;;;;;;;13.53;6.37;;;-1.80;99.90;;;;;;5053259;28;20095;-68
2021/11/23 02:39:10;;;;;;;15.40;6.53;;;-1.80;99.90;;;;;;5053743;28;20052;-68
2021/11/23 02:41:40;;;;;;;12.57;5.43;;;-1.90;99.90;;;;;;5053676;28;20563;-68
2021/11/23 02:44:07;;;;;;;12.37;6.10;;;-1.90;99.90;;;;;;5053402;28;20045;-67
2021/11/23 02:46:34;;;;;;;14.03;5.43;;;-1.90;99.90;;;;;;5052966;28;20061;-68
2021/11/23 02:49:02;;;;;;;26.10;6.90;;;-1.80;99.90;;;;;;5053197;28;20111;-67
2021/11/23 02:51:33;;;;;;;13.87;5.73;;;-1.90;99.90;;;;;;5053478;28;20049;-67
2021/11/23 02:54:00;;;;;;;9.97;4.93;;;-1.90;99.90;;;;;;5053309;28;20057;-67
2021/11/23 02:56:28;;;;;;;9.50;4.73;;;-1.90;99.90;;;;;;5052637;28;20064;-68
2021/11/23 02:58:55;;;;;;;12.53;6.30;;;-1.90;99.90;;;;;;5050976;22;20133;-65
2021/11/23 03:01:25;;;;;;;12.53;5.30;;;-1.90;99.90;;;;;;5013383;28;20129;-64
2021/11/23 03:03:53;;;;;;;14.87;5.83;;;-2.00;99.90;;;;;;5020768;28;20045;-65
2021/11/23 03:06:21;;;;;;;13.00;5.27;;;-2.00;99.90;;;;;;5032273;28;20053;-65
2021/11/23 03:08:50;;;;;;;9.83;5.30;;;-2.00;99.90;;;;;;5032699;28;20142;-65
2021/11/23 03:11:20;;;;;;;10.17;5.27;;;-2.00;99.90;;;;;;5032882;28;20053;-64
2021/11/23 03:13:48;;;;;;;11.13;5.37;;;-2.00;99.90;;;;;;5032797;28;20103;-64
2021/11/23 03:16:15;;;;;;;11.20;5.80;;;-2.00;99.90;;;;;;5032266;28;20057;-65
2021/11/23 03:18:43;;;;;;;11.63;5.80;;;-2.00;99.90;;;;;;5041021;28;20201;-63
2021/11/23 03:21:10;;;;;;;13.97;5.60;;;-2.10;99.90;;;;;;5050731;28;20049;-64
2021/11/23 03:23:37;;;;;;;14.27;6.27;;;-2.10;99.90;;;;;;5039644;28;20050;-64
2021/11/23 03:26:05;;;;;;;10.57;5.63;;;-2.10;99.90;;;;;;5032567;28;20562;-65
2021/11/23 03:28:32;;;;;;;14.87;6.33;;;-2.10;99.90;;;;;;5032425;28;20061;-65
2021/11/23 03:31:01;;;;;;;15.67;6.47;;;-2.10;99.90;;;;;;5032195;28;20108;-66
2021/11/23 03:33:28;;;;;;;12.53;5.60;;;-2.10;99.90;;;;;;5032217;28;20111;-64
2021/11/23 03:35:55;;;;;;;12.83;6.03;;;-2.10;99.90;;;;;;5031400;28;20053;-65
2021/11/23 03:38:24;;;;;;;13.67;6.00;;;-2.10;99.90;;;;;;5031661;28;20053;-64
2021/11/23 03:40:51;;;;;;;12.77;6.10;;;-2.10;99.90;;;;;;5032637;28;20053;-65
2021/11/23 03:43:18;;;;;;;12.33;5.93;;;-2.10;99.90;;;;;;5031874;28;20468;-65
2021/11/23 03:45:45;;;;;;;11.40;5.63;;;-2.20;99.90;;;;;;5031529;28;20041;-65
2021/11/23 03:48:13;;;;;;;12.43;5.23;;;-2.20;99.90;;;;;;5031564;28;20045;-65
2021/11/23 03:50:40;;;;;;;11.47;5.87;;;-2.00;99.90;;;;;;5032089;28;20501;-65
2021/11/23 03:53:07;;;;;;;12.20;5.73;;;-2.00;99.90;;;;;;5031837;28;20045;-64
2021/11/23 03:55:36;;;;;;;13.17;5.60;;;-2.00;99.90;;;;;;5031706;28;20053;-67
2021/11/23 03:58:04;;;;;;;13.30;5.60;;;-2.10;99.90;;;;;;5031927;28;20092;-63
2021/11/23 04:00:32;;;;;;;10.60;5.37;;;-2.10;99.90;;;;;;5031526;28;20059;-65
2021/11/23 04:02:59;;;;;;;11.17;5.23;;;-2.10;99.90;;;;;;5031237;28;20042;-64
2021/11/23 04:05:28;;;;;;;11.33;5.00;;;-2.20;99.90;;;;;;5031271;28;20045;-65
2021/11/23 04:07:55;;;;;;;10.97;4.77;;;-2.10;99.90;;;;;;5051726;28;20125;-64
2021/11/23 04:10:22;;;;;;;15.87;5.10;;;-2.10;99.90;;;;;;5041325;28;20477;-65
2021/11/23 04:12:51;;;;;;;10.53;4.97;;;-2.00;99.90;;;;;;5032786;28;20053;-65
2021/11/23 04:15:19;;;;;;;10.00;4.90;;;-2.00;99.90;;;;;;5030938;28;20406;-65
2021/11/23 04:17:46;;;;;;;11.10;5.13;;;-2.10;99.90;;;;;;5031142;28;20104;-64
2021/11/23 04:20:14;;;;;;;11.77;5.33;;;-2.10;99.90;;;;;;5031386;28;20089;-65
2021/11/23 04:22:43;;;;;;;11.30;4.73;;;-2.10;99.90;;;;;;5031444;28;20103;-65
2021/11/23 04:25:11;;;;;;;11.90;5.17;;;-2.10;99.90;;;;;;5030471;28;20053;-64
2021/11/23 04:27:39;;;;;;;11.70;5.10;;;-2.10;99.90;;;;;;5031079;28;20072;-65
2021/11/23 04:30:10;;;;;;;11.57;5.27;;;-2.10;99.90;;;;;;5030730;28;20053;-64
2021/11/23 04:32:37;;;;;;;9.63;4.63;;;-2.20;99.90;;;;;;5031254;28;20076;-65
2021/11/23 04:35:05;;;;;;;13.47;4.80;;;-2.20;99.90;;;;;;5030406;28;20068;-64
2021/11/23 04:37:32;;;;;;;11.47;5.47;;;-2.20;99.90;;;;;;5031114;28;20053;-64
2021/11/23 04:40:01;;;;;;;12.13;5.00;;;-2.20;99.90;;;;;;5030717;28;20057;-64
2021/11/23 04:42:28;;;;;;;12.07;5.47;;;-2.20;99.90;;;;;;5030511;28;20053;-64
2021/11/23 04:44:55;;;;;;;10.07;5.30;;;-2.20;99.90;;;;;;5030141;28;20053;-63
2021/11/23 04:47:22;;;;;;;10.10;5.40;;;-2.20;99.90;;;;;;5030787;28;20103;-64
2021/11/23 04:49:49;;;;;;;12.10;5.70;;;-2.30;99.90;;;;;;5030263;28;20056;-65
2021/11/23 04:52:16;;;;;;;14.03;5.57;;;-2.30;99.90;;;;;;5030945;28;20053;-64
2021/11/23 04:54:43;;;;;;;10.30;4.83;;;-2.30;99.90;;;;;;5030019;28;20057;-65
2021/11/23 04:57:11;;;;;;;10.77;4.90;;;-2.40;99.90;;;;;;5030434;28;20484;-64
2021/11/23 04:59:39;;;;;;;11.67;5.80;;;-2.40;99.90;;;;;;5030330;28;20102;-64
2021/11/23 05:02:06;;;;;;;12.70;5.63;;;-2.40;99.90;;;;;;5030658;28;20425;-64
2021/11/23 05:04:33;;;;;;;13.83;5.97;;;-2.40;99.90;;;;;;5029968;28;20563;-64
2021/11/23 05:07:00;;;;;;;11.70;5.70;;;-2.40;99.90;;;;;;5029978;28;20497;-64
2021/11/23 05:09:27;;;;;;;14.27;6.50;;;-2.30;99.90;;;;;;5030103;28;20508;-64
2021/11/23 05:11:54;;;;;;;16.70;7.07;;;-2.20;99.90;;;;;;5030563;28;20060;-64
2021/11/23 05:14:22;;;;;;;13.50;7.00;;;-2.20;99.90;;;;;;5030330;28;20559;-64
2021/11/23 05:16:50;;;;;;;20.83;6.87;;;-2.20;99.90;;;;;;5029706;28;20057;-64
2021/11/23 05:19:17;;;;;;;15.03;7.40;;;-2.30;99.90;;;;;;5030157;28;20457;-65
2021/11/23 05:21:44;;;;;;;17.20;6.77;;;-2.30;99.90;;;;;;5030432;28;20468;-64
2021/11/23 05:24:13;;;;;;;14.20;6.93;;;-2.30;99.90;;;;;;5029644;28;20045;-65
2021/11/23 05:26:40;;;;;;;15.00;6.53;;;-2.30;99.90;;;;;;5029502;28;20520;-64
2021/11/23 05:29:09;;;;;;;15.53;7.57;;;-2.40;99.90;;;;;;5029974;28;20049;-64
2021/11/23 05:31:38;;;;;;;14.03;6.03;;;-2.40;99.90;;;;;;5030089;28;20062;-64
2021/11/23 05:34:05;;;;;;;13.60;6.33;;;-2.50;99.90;;;;;;5030258;28;20054;-64
2021/11/23 05:36:32;;;;;;;15.20;7.40;;;-2.40;99.90;;;;;;5029020;28;20050;-64
2021/11/23 05:39:00;;;;;;;20.13;9.83;;;-2.40;99.90;;;;;;5029756;28;20060;-64
2021/11/23 05:41:27;;;;;;;21.37;7.87;;;-2.30;99.90;;;;;;5030055;28;20053;-64
2021/11/23 05:43:54;;;;;;;14.73;6.50;;;-2.30;99.90;;;;;;5030097;28;20053;-64
2021/11/23 05:46:21;;;;;;;14.13;6.53;;;-2.30;99.90;;;;;;5029136;28;20501;-64
2021/11/23 05:48:49;;;;;;;14.47;7.20;;;-2.30;99.90;;;;;;5029836;28;20494;-65
2021/11/23 05:51:16;;;;;;;14.60;6.67;;;-2.40;99.90;;;;;;5029752;28;20076;-64
2021/11/23 05:53:43;;;;;;;13.20;6.40;;;-2.40;99.90;;;;;;5029772;28;20049;-64
2021/11/23 05:56:10;;;;;;;14.50;6.30;;;-2.50;99.90;;;;;;5029082;28;20521;-64
2021/11/23 05:58:38;;;;;;;19.17;7.23;;;-2.50;99.90;;;;;;5029584;28;20053;-65
2021/11/23 06:01:05;;;;;;;12.37;6.27;;;-2.50;99.90;;;;;;5028501;28;20390;-64
2021/11/23 06:03:32;;;;;;;16.20;6.93;;;-2.60;99.90;;;;;;5029526;28;20509;-64
2021/11/23 06:06:01;;;;;;;15.00;6.47;;;-2.60;99.90;;;;;;5029221;28;20505;-64
2021/11/23 06:08:29;;;;;;;15.23;7.40;;;-2.60;99.90;;;;;;5029547;28;20068;-64
2021/11/23 06:10:56;;;;;;;18.90;8.17;;;-2.40;99.90;;;;;;5029289;28;20049;-64
2021/11/23 06:13:23;;;;;;;13.80;7.03;;;-2.40;99.90;;;;;;5029344;28;20096;-64
2021/11/23 06:15:51;;;;;;;13.50;6.40;;;-2.30;99.90;;;;;;5028666;28;20060;-64
2021/11/23 06:18:18;;;;;;;18.57;7.97;;;-2.30;99.90;;;;;;5029670;28;20421;-63
2021/11/23 06:20:46;;;;;;;14.57;7.77;;;-2.30;99.90;;;;;;5029208;28;20049;-64
2021/11/23 06:23:17;;;;;;;16.77;7.87;;;-2.30;99.90;;;;;;5029403;28;20502;-64
2021/11/23 06:25:44;;;;;;;13.73;6.97;;;-2.40;99.90;;;;;;5028901;28;20521;-64
2021/11/23 06:28:13;;;;;;;12.00;6.73;;;-2.40;99.90;;;;;;5029740;28;20049;-64
2021/11/23 06:30:41;;;;;;;14.17;6.40;;;-2.40;99.90;;;;;;5047593;28;20054;-63
2021/11/23 06:33:08;;;;;;;14.27;6.57;;;-2.40;99.90;;;;;;5045921;28;20046;-64
2021/11/23 06:35:35;;;;;;;14.03;6.90;;;-2.50;99.90;;;;;;5029861;28;20055;-63
2021/11/23 06:38:03;;;;;;;14.37;6.00;;;-2.50;99.90;;;;;;5030076;28;20052;-64
2021/11/23 06:40:32;;;;;;;12.00;6.47;;;-2.60;99.90;;;;;;5029399;28;20053;-64
2021/11/23 06:42:59;;;;;;;14.40;6.67;;;-2.60;99.90;;;;;;5028784;28;20069;-64
2021/11/23 06:45:26;;;;;;;18.37;7.20;;;-2.50;99.90;;;;;;5028487;28;20405;-64
2021/11/23 06:47:54;;;;;;;12.73;6.60;;;-2.50;99.90;;;;;;5029055;28;20049;-64
2021/11/23 06:50:21;;;;;;;16.97;7.50;;;-2.40;99.90;;;;;;5028974;28;20492;-64
2021/11/23 06:52:49;;;;;;;15.77;7.50;;;-2.40;99.90;;;;;;5029128;28;20049;-64
2021/11/23 06:55:16;;;;;;;18.07;7.90;;;-2.30;99.90;;;;;;5027846;28;20065;-64
2021/11/23 06:57:44;;;;;;;14.27;7.07;;;-2.40;99.90;;;;;;5028828;28;20539;-63
2021/11/23 07:00:12;;;;;;;16.60;7.77;;;-2.30;99.90;;;;;;5028666;28;20045;-64
2021/11/23 07:02:39;;;;;;;27.10;11.90;;;-2.20;99.90;;;;;;5028736;28;20488;-63
2021/11/23 07:05:06;;;;;;;23.47;9.23;;;-2.20;99.90;;;;;;5028084;28;20564;-64
2021/11/23 07:07:34;;;;;;;21.03;8.40;;;-2.20;99.90;;;;;;5029141;28;20095;-64
2021/11/23 07:10:03;;;;;;;16.73;7.43;;;-2.20;99.90;;;;;;5029313;28;20053;-64
2021/11/23 07:12:30;;;;;;;13.63;7.10;;;-2.10;99.90;;;;;;5030132;28;20123;-64
2021/11/23 07:14:59;;;;;;;15.33;7.47;;;-2.00;99.90;;;;;;5046304;28;20054;-64
2021/11/23 07:17:26;;;;;;;13.67;7.00;;;-2.10;99.90;;;;;;5044894;28;20045;-63
2021/11/23 07:19:53;;;;;;;12.90;7.17;;;-2.00;99.90;;;;;;5055133;28;20064;-63
2021/11/23 07:22:20;;;;;;;16.30;7.40;;;-2.00;99.90;;;;;;5036465;28;20099;-65
2021/11/23 07:24:47;;;;;;;16.37;7.87;;;-1.90;99.90;;;;;;5037303;28;20064;-65
2021/11/23 07:27:15;;;;;;;17.93;7.93;;;-1.80;99.90;;;;;;5033479;28;20045;-65
2021/11/23 07:29:42;;;;;;;17.70;8.23;;;-1.70;99.90;;;;;;5034356;28;20406;-65
2021/11/23 07:32:11;;;;;;;21.97;8.70;;;-1.70;99.90;;;;;;5033207;28;20049;-65
2021/11/23 07:34:39;;;;;;;28.73;9.23;;;-1.60;99.90;;;;;;5032845;28;20116;-65
2021/11/23 07:37:06;;;;;;;23.57;9.17;;;-1.60;99.90;;;;;;5032648;28;20103;-65
2021/11/23 07:39:34;;;;;;;20.33;9.00;;;-1.60;99.90;;;;;;5033360;28;20052;-65
2021/11/23 07:42:01;;;;;;;18.47;8.33;;;-1.60;99.90;;;;;;5032520;28;20053;-66
2021/11/23 07:44:28;;;;;;;27.40;10.20;;;-1.60;99.90;;;;;;5033512;28;20394;-65
2021/11/23 07:46:55;;;;;;;27.30;10.63;;;-1.50;99.90;;;;;;5033035;28;20045;-65
2021/11/23 07:49:24;;;;;;;25.83;10.23;;;-1.40;99.90;;;;;;5033812;28;20233;-65
2021/11/23 07:51:51;;;;;;;25.57;10.57;;;-1.30;99.90;;;;;;5033196;28;20456;-65
2021/11/23 07:54:18;;;;;;;21.50;9.53;;;-1.20;99.90;;;;;;5033349;28;20128;-65
2021/11/23 07:56:45;;;;;;;18.87;9.60;;;-1.10;99.90;;;;;;5032141;28;20053;-64
2021/11/23 07:59:12;;;;;;;25.37;10.93;;;-0.90;99.90;;;;;;5032732;28;20057;-66
2021/11/23 08:01:39;;;;;;;30.97;11.20;;;-0.80;99.90;;;;;;5031449;28;20053;-64
2021/11/23 08:04:06;;;;;;;23.23;10.20;;;-0.70;99.90;;;;;;5031675;28;20507;-65
2021/11/23 08:06:35;;;;;;;28.33;11.13;;;-0.70;99.90;;;;;;5031029;28;20103;-64
2021/11/23 08:09:02;;;;;;;27.40;10.43;;;-0.60;99.90;;;;;;5031644;28;20045;-64
2021/11/23 08:11:29;;;;;;;24.37;10.93;;;-0.60;99.90;;;;;;5031412;28;20057;-65
2021/11/23 08:13:56;;;;;;;19.33;8.97;;;-0.30;99.90;;;;;;5031666;28;20472;-65
2021/11/23 08:16:23;;;;;;;21.53;10.10;;;0.00;99.90;;;;;;5030558;28;20057;-65
2021/11/23 08:18:51;;;;;;;21.67;10.43;;;-0.30;99.90;;;;;;5031635;28;20077;-63
2021/11/23 08:21:18;;;;;;;24.17;10.37;;;-0.40;99.90;;;;;;5031442;28;20053;-65
2021/11/23 08:23:46;;;;;;;21.83;11.23;;;-0.30;99.90;;;;;;5030528;28;20104;-63
2021/11/23 08:26:14;;;;;;;26.43;9.80;;;-0.20;99.90;;;;;;5030648;28;20535;-65
2021/11/23 08:28:42;;;;;;;19.83;10.50;;;-0.20;99.90;;;;;;5031516;28;20072;-64
2021/11/23 08:31:10;;;;;;;20.53;10.83;;;-0.20;99.90;;;;;;5031312;28;20163;-65
2021/11/23 08:33:37;;;;;;;26.30;10.17;;;-0.10;99.90;;;;;;5031541;28;20049;-65
2021/11/23 08:36:05;;;;;;;22.63;10.00;;;0.00;99.90;;;;;;5030126;28;20053;-65
2021/11/23 08:38:32;;;;;;;18.30;9.40;;;0.10;99.90;;;;;;5031429;28;20101;-65
2021/11/23 08:41:01;;;;;;;18.60;9.47;;;0.30;99.90;;;;;;5030910;28;20524;-65
2021/11/23 08:43:28;;;;;;;21.93;9.77;;;0.50;99.90;;;;;;5031062;28;20049;-65
2021/11/23 08:45:55;;;;;;;23.03;10.40;;;0.50;99.90;;;;;;5031360;28;20409;-65
2021/11/23 08:48:22;;;;;;;22.43;10.97;;;0.80;99.90;;;;;;5031666;28;20049;-65
2021/11/23 08:50:49;;;;;;;24.07;11.30;;;0.80;99.90;;;;;;5031322;28;20053;-64
2021/11/23 08:53:16;;;;;;;19.17;9.23;;;1.10;99.90;;;;;;5030751;28;20449;-65
2021/11/23 08:55:44;;;;;;;16.90;9.50;;;1.30;99.90;;;;;;5030508;28;20042;-64
2021/11/23 09:00:47;;;;;;;24.13;10.03;;;2.50;99.90;;;;;;5045336;22;19921;-66
2021/11/23 09:03:15;;;;;;;18.97;9.53;;;3.80;99.90;;;;;;5034398;28;20144;-66
2021/11/23 09:05:44;;;;;;;17.03;8.07;;;5.00;99.90;;;;;;5050174;28;20052;-66
2021/11/23 09:08:11;;;;;;;16.73;8.77;;;5.50;99.90;;;;;;5050847;28;20053;-66
2021/11/23 09:10:40;;;;;;;23.92;8.75;;;7.70;99.90;;;;;;5051010;28;20056;-66
2021/11/23 09:13:07;;;;;;;14.20;7.68;;;10.50;99.90;;;;;;5049975;28;20056;-66
2021/11/23 09:15:35;;;;;;;14.25;7.05;;;12.00;99.90;;;;;;5049682;28;20409;-67
2021/11/23 09:18:04;;;;;;;15.35;7.10;;;12.90;99.90;;;;;;5050134;28;20433;-67
2021/11/23 09:20:36;;;;;;;18.85;8.95;;;13.50;99.90;;;;;;5050277;28;20052;-67
2021/11/23 09:23:05;;;;;;;19.52;7.90;;;13.90;99.90;;;;;;5049711;28;20071;-67
2021/11/23 09:25:33;;;;;;;14.95;7.55;;;14.70;99.90;;;;;;5048945;28;20060;-67
2021/11/23 09:28:00;;;;;;;17.65;7.95;;;15.30;99.90;;;;;;5049384;28;20052;-68
2021/11/23 09:30:29;;;;;;;28.75;8.68;;;15.70;99.00;;;;;;5050062;28;20083;-68
2021/11/23 09:32:57;;;;;;;18.92;8.60;;;15.80;99.30;;;;;;5049401;28;20501;-68
2021/11/23 09:35:27;;;;;;;14.35;9.02;;;16.00;98.80;;;;;;5049085;28;20122;-68
2021/11/23 09:37:54;;;;;;;13.98;8.52;;;16.50;98.60;;;;;;5049380;28;20106;-68
2021/11/23 09:40:22;;;;;;;14.88;8.30;;;16.50;98.10;;;;;;5049536;28;20053;-68
2021/11/23 09:42:50;;;;;;;11.50;7.78;;;15.30;99.30;;;;;;5049724;28;20049;-68
2021/11/23 09:45:18;;;;;;;14.50;7.82;;;16.10;98.70;;;;;;5048667;28;20048;-67
2021/11/23 09:47:45;;;;;;;11.73;7.10;;;16.90;97.60;;;;;;5049031;28;20500;-67
2021/11/23 09:50:14;;;;;;;13.75;7.93;;;17.50;97.40;;;;;;5049723;28;20053;-68
2021/11/23 09:52:43;;;;;;;14.02;7.70;;;17.60;96.70;;;;;;5049121;28;20056;-68
2021/11/23 09:55:12;;;;;;;12.15;7.55;;;18.10;96.20;;;;;;5048496;28;20480;-67
2021/11/23 09:57:39;;;;;;;12.32;7.20;;;17.60;95.50;;;;;;5049060;28;20106;-68
2021/11/23 10:00:24;;;;;;;14.70;6.93;;;15.40;95.30;;;;;;5049127;28;20045;-67
2021/11/23 10:02:51;;;;;;;12.50;7.47;;;17.40;96.10;;;;;;5049228;28;20063;-68
2021/11/23 10:05:19;;;;;;;17.83;7.55;;;17.30;96.30;;;;;;5047992;28;20049;-67
2021/11/23 10:07:47;;;;;;;14.75;7.55;;;17.10;95.70;;;;;;5048920;28;20060;-68
2021/11/23 10:10:18;;;;;;;18.15;7.40;;;18.70;95.60;;;;;;5049071;28;20053;-67
2021/11/23 10:12:54;;;;;;;14.30;7.70;;;19.10;95.10;;;;;;5048968;28;20095;-68
2021/11/23 10:15:24;;;;;;;17.00;8.60;;;19.10;94.30;;;;;;5048448;28;20049;-68
2021/11/23 10:17:53;;;;;;;23.55;10.63;;;20.10;94.30;;;;;;5048644;28;20496;-68
2021/11/23 10:20:43;;;;;;;15.20;8.38;;;19.60;94.00;;;;;;5049182;28;20095;-68
2021/11/23 10:23:16;;;;;;;16.23;8.63;;;19.20;94.10;;;;;;5044651;28;20061;-68
2021/11/23 10:25:43;;;;;;;16.63;8.30;;;18.50;94.50;;;;;;5048351;28;20045;-68
2021/11/23 10:28:10;;;;;;;15.75;9.05;;;19.40;94.40;;;;;;5048550;28;20106;-68
2021/11/23 10:30:44;;;;;;;14.80;8.27;;;18.40;93.90;;;;;;5049310;28;20124;-68
2021/11/23 10:33:12;;;;;;;20.23;9.57;;;18.40;93.40;;;;;;5048826;28;20468;-68
2021/11/23 10:35:40;;;;;;;15.65;9.15;;;18.90;94.60;;;;;;5048302;28;20049;-68
2021/11/23 10:38:08;;;;;;;17.08;8.35;;;19.20;95.20;;;;;;5048544;28;20045;-68
2021/11/23 10:40:38;;;;;;;12.15;8.20;;;19.00;94.30;;;;;;5048764;28;20615;-68
2021/11/23 10:43:10;;;;;;;12.93;8.15;;;19.80;93.70;;;;;;5048824;28;20052;-68
2021/11/23 10:45:39;;;;;;;13.48;8.55;;;20.30;92.80;;;;;;5047956;28;20347;-68
2021/11/23 10:48:07;;;;;;;20.80;8.75;;;18.30;93.40;;;;;;5051096;28;20484;-68
2021/11/23 10:50:36;;;;;;;14.80;7.97;;;17.00;94.00;;;;;;5052815;28;20115;-68
2021/11/23 10:53:07;;;;;;;11.77;6.80;;;18.20;93.90;;;;;;5052118;28;20493;-68
2021/11/23 10:55:36;;;;;;;13.00;7.47;;;18.80;93.90;;;;;;5052077;28;20048;-67
2021/11/23 10:58:08;;;;;;;11.38;7.30;;;18.60;93.20;;;;;;5052434;28;20115;-68
2021/11/23 11:00:37;;;;;;;16.85;7.22;;;19.20;92.50;;;;;;5052825;28;20069;-68
2021/11/23 11:03:05;;;;;;;11.35;7.15;;;18.60;94.50;;;;;;5052174;28;20061;-68
2021/11/23 11:05:34;;;;;;;14.10;7.47;;;18.20;93.10;;;;;;5051407;28;20492;-68
2021/11/23 11:08:02;;;;;;;12.23;7.78;;;18.40;92.90;;;;;;5052207;28;20055;-67
2021/11/23 11:10:31;;;;;;;16.75;7.70;;;19.50;93.30;;;;;;5052463;28;20432;-67
2021/11/23 11:12:59;;;;;;;16.38;7.38;;;19.70;92.40;;;;;;5051993;28;20049;-68
2021/11/23 11:15:34;;;;;;;15.38;6.32;;;18.40;93.70;;;;;;5051562;28;20140;-68
2021/11/23 11:18:02;;;;;;;20.02;7.40;;;19.30;93.90;;;;;;5051951;28;20464;-68
2021/11/23 11:20:37;;;;;;;19.45;7.32;;;19.10;92.70;;;;;;5052571;28;20057;-68
2021/11/23 11:23:09;;;;;;;16.52;6.75;;;18.40;93.80;;;;;;5052042;28;20075;-68
2021/11/23 11:26:04;;;;;;;14.50;6.78;;;19.10;93.20;;;;;;5051421;28;20045;-68
2021/11/23 11:28:44;;;;;;;13.02;6.40;;;18.50;93.20;;;;;;5051568;28;20467;-68
2021/11/23 11:31:38;;;;;;;13.50;7.57;;;19.40;93.60;;;;;;5052546;28;20166;-68
2021/11/23 11:34:30;;;;;;;13.02;6.85;;;18.10;94.00;;;;;;5051611;28;20057;-67
2021/11/23 11:37:10;;;;;;;10.68;6.38;;;16.70;95.00;;;;;;5050902;28;20052;-68
2021/11/23 11:39:50;;;;;;;9.60;5.72;;;16.30;94.60;;;;;;5048648;28;20128;-67
2021/11/23 11:42:50;;;;;;;12.43;5.95;;;14.50;95.30;;;;;;5041760;28;20140;-68
2021/11/23 11:45:21;;;;;;;10.20;5.68;;;15.40;95.50;;;;;;5039603;28;20056;-68
2021/11/23 11:47:51;;;;;;;10.68;6.28;;;15.00;95.80;;;;;;5050787;28;20143;-67
2021/11/23 11:50:22;;;;;;;11.73;6.53;;;14.80;96.10;;;;;;5051065;28;20053;-68
2021/11/23 11:53:14;;;;;;;11.93;6.70;;;14.10;97.40;;;;;;5050795;28;20049;-69
2021/11/23 11:55:51;;;;;;;15.60;6.97;;;14.10;97.70;;;;;;5033299;28;20136;-68
2021/11/23 11:58:42;;;;;;;17.90;7.00;;;14.40;97.20;;;;;;5049877;28;20057;-69
2021/11/23 12:01:23;;;;;;;14.88;6.97;;;14.30;97.00;;;;;;5051108;28;20519;-69
2021/11/23 12:04:11;;;;;;;11.20;6.45;;;13.80;97.40;;;;;;5050987;28;20056;-69
2021/11/23 12:07:06;;;;;;;12.23;6.38;;;13.30;97.70;;;;;;5050358;28;20049;-69
2021/11/23 12:09:36;;;;;;;14.35;7.38;;;14.10;98.00;;;;;;5050449;28;20060;-68
2021/11/23 12:12:34;;;;;;;12.82;6.85;;;13.60;98.10;;;;;;5051153;28;20414;-68
2021/11/23 12:15:08;;;;;;;;;;;13.20;97.30;;;;;;5051082;28;20071;-68
2021/11/23 12:17:45;;;;;;;14.05;7.00;;;13.90;97.10;;;;;;5051439;28;20018;-68
2021/11/23 12:20:21;;;;;;;12.68;6.45;;;14.30;97.80;;;;;;5051042;28;20456;-69
2021/11/23 12:22:50;;;;;;;14.35;5.97;;;15.10;97.50;;;;;;5051132;28;20400;-69
2021/11/23 12:25:19;;;;;;;10.85;5.95;;;15.00;96.30;;;;;;5050187;28;20049;-68
2021/11/23 12:27:48;;;;;;;10.93;6.35;;;15.80;95.60;;;;;;5051112;28;20139;-69
2021/11/23 12:30:18;;;;;;;9.98;5.43;;;16.30;94.70;;;;;;5050368;28;20460;-69
2021/11/23 12:32:45;;;;;;;10.65;4.95;;;16.80;94.50;;;;;;5050719;28;20513;-69
2021/11/23 12:35:16;;;;;;;8.20;4.88;;;16.80;94.10;;;;;;5050007;28;20084;-69
2021/11/23 12:37:46;;;;;;;8.10;4.55;;;17.70;93.60;;;;;;5050716;28;20057;-68
2021/11/23 12:40:14;;;;;;;9.27;5.32;;;18.20;93.00;;;;;;5050809;28;20147;-68
2021/11/23 12:42:51;;;;;;;7.70;4.60;;;18.00;92.70;;;;;;5050423;28;20052;-70
2021/11/23 12:45:18;;;;;;;9.68;4.78;;;18.20;93.60;;;;;;5049866;28;20049;-69
2021/11/23 12:47:49;;;;;;;10.32;4.85;;;18.00;93.40;;;;;;5050427;28;20558;-68
2021/11/23 12:50:19;;;;;;;10.10;4.65;;;18.30;92.70;;;;;;5050476;28;20110;-69